Time;durP1;ratioP1;P1;durP2;ratioP2;P2;SDS_P1;SDS_P2;PMS_P1;PMS_P2;Temp;Humidity;BMP_temperature;BMP_pressure;BME280_temperature;BME280_humidity;BME280_pressure;Samples;Min_cycle;Max_cycle;Signal;HPM_P1;HPM_P2
2021/01/19 00:00:13;;;;;;;3.27;3.00;;;2.90;99.90;;;;;;5051591;28;20254;-66
2021/01/19 00:02:39;;;;;;;3.60;2.57;;;2.90;99.90;;;;;;5051520;28;20160;-66
2021/01/19 00:05:06;;;;;;;4.10;3.00;;;2.80;99.90;;;;;;5051476;28;20939;-66
2021/01/19 00:07:31;;;;;;;3.30;3.10;;;2.90;99.90;;;;;;5051256;28;20184;-68
2021/01/19 00:09:57;;;;;;;3.47;3.17;;;2.80;99.90;;;;;;5051304;28;20446;-67
2021/01/19 00:12:23;;;;;;;3.10;2.90;;;2.80;99.90;;;;;;5051558;28;20183;-66
2021/01/19 00:14:50;;;;;;;5.50;3.43;;;2.90;99.90;;;;;;5050130;28;20272;-67
2021/01/19 00:17:16;;;;;;;3.13;3.00;;;2.90;99.90;;;;;;5050981;28;20920;-66
2021/01/19 00:19:42;;;;;;;3.30;3.10;;;2.90;99.90;;;;;;5051185;28;20403;-67
2021/01/19 00:22:07;;;;;;;3.07;2.93;;;2.90;99.90;;;;;;5051425;28;20489;-66
2021/01/19 00:24:33;;;;;;;6.13;3.17;;;2.90;99.90;;;;;;5051419;28;20164;-67
2021/01/19 00:26:58;;;;;;;3.27;2.97;;;2.90;99.90;;;;;;5050928;28;20192;-66
2021/01/19 00:29:24;;;;;;;4.30;3.47;;;2.90;99.90;;;;;;5051289;28;20175;-67
2021/01/19 00:31:49;;;;;;;3.70;3.00;;;2.90;99.90;;;;;;5051509;28;20555;-66
2021/01/19 00:34:16;;;;;;;3.50;3.20;;;2.90;99.90;;;;;;5055279;28;20602;-66
2021/01/19 00:36:41;;;;;;;3.97;3.60;;;2.80;99.90;;;;;;5054547;28;20203;-66
2021/01/19 00:39:08;;;;;;;3.53;3.23;;;2.80;99.90;;;;;;5054062;28;20420;-66
2021/01/19 00:41:34;;;;;;;7.63;3.07;;;2.80;99.90;;;;;;5054927;28;20612;-66
2021/01/19 00:43:59;;;;;;;6.47;3.50;;;2.80;99.90;;;;;;5055104;28;20497;-66
2021/01/19 00:46:25;;;;;;;4.23;3.83;;;2.80;99.90;;;;;;5054622;28;20703;-66
2021/01/19 00:48:51;;;;;;;3.23;3.03;;;2.80;99.90;;;;;;5054676;28;20168;-67
2021/01/19 00:51:16;;;;;;;4.00;3.30;;;2.70;99.90;;;;;;5054778;28;20168;-67
2021/01/19 00:53:42;;;;;;;3.70;3.47;;;2.80;99.90;;;;;;5054793;28;20691;-66
2021/01/19 00:56:08;;;;;;;7.10;3.47;;;2.70;99.90;;;;;;5054569;28;20175;-66
2021/01/19 00:58:33;;;;;;;3.47;3.27;;;2.70;99.90;;;;;;5054289;28;20164;-66
2021/01/19 01:00:59;;;;;;;4.77;4.37;;;2.70;99.90;;;;;;5054614;28;20239;-66
2021/01/19 01:03:24;;;;;;;4.67;4.03;;;2.70;99.90;;;;;;5054511;28;20167;-66
2021/01/19 01:05:50;;;;;;;3.63;3.43;;;2.70;99.90;;;;;;5054679;28;20175;-66
2021/01/19 01:08:15;;;;;;;5.43;3.87;;;2.70;99.90;;;;;;5053981;28;20190;-66
2021/01/19 01:10:41;;;;;;;3.93;3.63;;;2.60;99.90;;;;;;5054556;28;20529;-67
2021/01/19 01:13:06;;;;;;;6.93;3.87;;;2.50;99.90;;;;;;5054348;28;20234;-66
2021/01/19 01:15:35;;;;;;;4.07;3.77;;;2.60;99.90;;;;;;5054301;28;20168;-66
2021/01/19 01:18:01;;;;;;;6.93;3.60;;;2.50;99.90;;;;;;5053637;28;20203;-66
2021/01/19 01:20:27;;;;;;;5.13;3.20;;;2.50;99.90;;;;;;5054344;28;20409;-66
2021/01/19 01:22:53;;;;;;;4.70;3.80;;;2.40;99.90;;;;;;5054183;28;20172;-66
2021/01/19 01:25:19;;;;;;;4.73;3.93;;;2.40;99.90;;;;;;5054319;28;20406;-66
2021/01/19 01:27:46;;;;;;;3.53;3.23;;;2.40;99.90;;;;;;5053764;28;20419;-66
2021/01/19 01:30:13;;;;;;;9.07;4.13;;;2.40;99.90;;;;;;5053861;28;20410;-67
2021/01/19 01:32:40;;;;;;;4.90;3.60;;;2.40;99.90;;;;;;5054147;28;20463;-66
2021/01/19 01:35:07;;;;;;;4.67;3.97;;;2.30;99.90;;;;;;5053914;28;20540;-66
2021/01/19 01:37:32;;;;;;;7.20;3.83;;;2.30;99.90;;;;;;5052333;28;20503;-66
2021/01/19 01:39:58;;;;;;;8.67;4.13;;;2.30;99.90;;;;;;5053705;28;20442;-66
2021/01/19 01:42:25;;;;;;;4.63;4.23;;;2.30;99.90;;;;;;5053968;28;20176;-67
2021/01/19 01:44:52;;;;;;;4.10;3.80;;;2.20;99.90;;;;;;5053584;28;20242;-66
2021/01/19 01:47:22;;;;;;;8.57;4.50;;;2.20;99.90;;;;;;5053586;28;20425;-66
2021/01/19 01:49:49;;;;;;;8.70;5.10;;;2.20;99.90;;;;;;5053551;28;20409;-66
2021/01/19 01:52:16;;;;;;;9.73;5.30;;;2.20;99.90;;;;;;5053732;28;20410;-66
2021/01/19 01:54:42;;;;;;;5.00;4.57;;;2.20;99.90;;;;;;5053564;28;20491;-66
2021/01/19 01:57:08;;;;;;;3.93;3.73;;;2.10;99.90;;;;;;5053004;28;20501;-66
2021/01/19 01:59:33;;;;;;;3.80;3.50;;;2.10;99.90;;;;;;5053498;28;20406;-66
2021/01/19 02:02:10;;;;;;;5.60;3.70;;;2.10;99.90;;;;;;5052176;28;20175;-66
2021/01/19 02:04:35;;;;;;;5.67;4.10;;;2.10;99.90;;;;;;5053491;28;20160;-66
2021/01/19 02:07:06;;;;;;;4.33;3.87;;;2.10;99.90;;;;;;5052943;28;20432;-66
2021/01/19 02:09:39;;;;;;;8.90;4.77;;;2.10;99.90;;;;;;5053318;28;20246;-66
2021/01/19 02:12:09;;;;;;;4.90;4.40;;;2.10;99.90;;;;;;5053263;28;20402;-66
2021/01/19 02:14:37;;;;;;;4.00;3.60;;;2.10;99.90;;;;;;5053268;28;20403;-66
2021/01/19 02:17:26;;;;;;;5.23;4.83;;;2.10;99.90;;;;;;5052681;28;20468;-66
2021/01/19 02:20:19;;;;;;;4.70;4.40;;;2.10;99.90;;;;;;5053156;28;20492;-66
2021/01/19 02:23:03;;;;;;;12.20;4.07;;;2.20;99.90;;;;;;5053005;28;20399;-66
2021/01/19 02:25:53;;;;;;;6.87;4.60;;;2.20;99.90;;;;;;5051898;28;20416;-67
2021/01/19 02:28:41;;;;;;;9.07;5.20;;;2.20;99.90;;;;;;5052494;28;20930;-67
2021/01/19 02:31:44;;;;;;;6.53;4.57;;;2.20;99.90;;;;;;5053109;28;20443;-67
2021/01/19 02:34:22;;;;;;;7.13;5.37;;;2.20;99.90;;;;;;5051593;28;20404;-66
2021/01/19 02:37:07;;;;;;;8.03;4.43;;;2.20;99.90;;;;;;5052405;28;20496;-66
2021/01/19 02:39:47;;;;;;;4.73;4.37;;;2.20;99.90;;;;;;5052671;28;20405;-67
2021/01/19 02:42:18;;;;;;;7.40;3.93;;;2.20;99.90;;;;;;5052827;28;20395;-66
2021/01/19 02:44:46;;;;;;;4.47;4.03;;;2.20;99.90;;;;;;5052508;28;20403;-66
2021/01/19 02:47:13;;;;;;;4.70;4.10;;;2.20;99.90;;;;;;5052301;28;20472;-66
2021/01/19 02:49:39;;;;;;;9.30;4.20;;;2.30;99.90;;;;;;5052436;28;20751;-66
2021/01/19 02:52:05;;;;;;;4.97;3.70;;;2.40;99.90;;;;;;5052680;28;20409;-66
2021/01/19 02:54:33;;;;;;;6.87;3.63;;;2.30;99.90;;;;;;5052033;28;20198;-66
2021/01/19 02:57:06;;;;;;;6.57;4.90;;;2.30;99.90;;;;;;5050656;28;20468;-66
2021/01/19 02:59:40;;;;;;;7.33;4.00;;;2.40;99.90;;;;;;5052183;28;20497;-67
2021/01/19 03:02:09;;;;;;;6.53;4.37;;;2.40;99.90;;;;;;5052383;28;20478;-67
2021/01/19 03:04:36;;;;;;;4.20;3.53;;;2.30;99.90;;;;;;5052169;28;20477;-66
2021/01/19 03:07:05;;;;;;;7.33;4.00;;;2.40;99.90;;;;;;5052002;28;20917;-67
2021/01/19 03:09:34;;;;;;;5.70;3.25;;;2.50;99.90;;;;;;5052085;28;20406;-66
2021/01/19 03:12:00;;;;;;;5.40;4.20;;;2.40;99.90;;;;;;5052218;28;20191;-66
2021/01/19 03:14:25;;;;;;;8.53;6.10;;;2.40;99.90;;;;;;5052040;28;20438;-66
2021/01/19 03:16:51;;;;;;;5.23;3.53;;;2.40;99.90;;;;;;5051775;28;20450;-66
2021/01/19 03:19:19;;;;;;;9.80;4.20;;;2.40;99.90;;;;;;5052073;28;20178;-66
2021/01/19 03:21:45;;;;;;;9.67;3.83;;;2.50;99.90;;;;;;5051932;28;20489;-66
2021/01/19 03:24:11;;;;;;;4.90;4.50;;;2.50;99.90;;;;;;5052055;28;20490;-67
2021/01/19 03:26:36;;;;;;;6.13;5.53;;;2.50;99.90;;;;;;5051445;28;20191;-68
2021/01/19 03:29:04;;;;;;;6.37;4.40;;;2.50;99.90;;;;;;5051920;28;20510;-66
2021/01/19 03:31:30;;;;;;;4.30;4.03;;;2.60;99.90;;;;;;5051685;28;20166;-66
2021/01/19 03:33:56;;;;;;;5.40;3.90;;;2.60;99.90;;;;;;5051123;28;20398;-66
2021/01/19 03:36:21;;;;;;;4.37;4.17;;;2.60;99.90;;;;;;5051182;28;20450;-66
2021/01/19 03:38:47;;;;;;;4.50;3.60;;;2.60;99.90;;;;;;5051563;28;20540;-66
2021/01/19 03:41:12;;;;;;;5.10;4.77;;;2.60;99.90;;;;;;5052278;28;20171;-68
2021/01/19 03:43:38;;;;;;;7.40;4.13;;;2.60;99.90;;;;;;5050672;28;20641;-68
2021/01/19 03:46:03;;;;;;;10.63;4.20;;;2.60;99.90;;;;;;5051694;28;20171;-68
2021/01/19 03:48:29;;;;;;;5.23;4.83;;;2.60;99.90;;;;;;5051457;28;20678;-68
2021/01/19 03:50:54;;;;;;;5.93;3.93;;;2.60;99.90;;;;;;5051926;28;20541;-68
2021/01/19 03:53:20;;;;;;;4.17;3.97;;;2.60;99.90;;;;;;5051617;28;20167;-68
2021/01/19 03:55:45;;;;;;;5.53;4.67;;;2.60;99.90;;;;;;5051718;28;20641;-68
2021/01/19 03:58:11;;;;;;;4.87;4.37;;;2.60;99.90;;;;;;5050829;28;20293;-67
2021/01/19 04:00:37;;;;;;;12.40;5.00;;;2.70;99.90;;;;;;5051654;28;20571;-68
2021/01/19 04:03:02;;;;;;;4.77;3.53;;;2.70;99.90;;;;;;5051486;28;20171;-68
2021/01/19 04:05:28;;;;;;;3.63;3.00;;;2.70;99.90;;;;;;5051626;28;20164;-68
2021/01/19 04:07:53;;;;;;;6.63;4.83;;;2.80;99.90;;;;;;5053214;28;20202;-67
2021/01/19 04:10:19;;;;;;;6.17;3.80;;;2.80;99.90;;;;;;5055653;28;20178;-68
2021/01/19 04:12:44;;;;;;;6.50;3.80;;;2.80;99.90;;;;;;5055374;28;20251;-68
2021/01/19 04:15:10;;;;;;;5.80;3.13;;;2.80;99.90;;;;;;5055607;28;20176;-68
2021/01/19 04:17:37;;;;;;;4.43;3.90;;;2.80;99.90;;;;;;5055098;28;20622;-68
2021/01/19 04:20:05;;;;;;;3.93;3.53;;;2.80;99.90;;;;;;5055247;28;20492;-68
2021/01/19 04:22:30;;;;;;;3.53;3.23;;;2.90;99.90;;;;;;5055436;28;20444;-68
2021/01/19 04:24:56;;;;;;;11.00;4.37;;;2.90;99.90;;;;;;5055218;28;20394;-68
2021/01/19 04:27:21;;;;;;;3.13;2.90;;;2.80;99.90;;;;;;5054987;28;20329;-68
2021/01/19 04:29:47;;;;;;;6.63;3.23;;;2.80;99.90;;;;;;5055089;28;20633;-68
2021/01/19 04:32:14;;;;;;;4.23;3.87;;;2.80;99.90;;;;;;5055254;28;20175;-68
2021/01/19 04:34:39;;;;;;;8.70;3.10;;;2.80;99.90;;;;;;5055083;28;20202;-68
2021/01/19 04:37:05;;;;;;;6.77;3.57;;;2.80;99.90;;;;;;5053523;28;20445;-68
2021/01/19 04:39:31;;;;;;;2.43;2.23;;;2.80;99.90;;;;;;5054889;28;20237;-68
2021/01/19 04:41:56;;;;;;;8.13;3.03;;;2.80;99.90;;;;;;5055003;28;20195;-68
2021/01/19 04:44:24;;;;;;;3.20;3.00;;;2.90;99.90;;;;;;5055001;28;20548;-68
2021/01/19 04:46:50;;;;;;;5.70;3.57;;;2.90;99.90;;;;;;5054547;28;20196;-68
2021/01/19 04:49:17;;;;;;;4.13;2.77;;;2.90;99.90;;;;;;5053659;28;20460;-68
2021/01/19 04:51:46;;;;;;;3.03;2.73;;;2.90;99.90;;;;;;5054740;28;20406;-67
2021/01/19 04:54:15;;;;;;;5.73;3.27;;;3.00;99.90;;;;;;5054800;28;20407;-68
2021/01/19 04:56:53;;;;;;;3.37;2.40;;;2.90;99.90;;;;;;5052743;28;20523;-68
2021/01/19 04:59:22;;;;;;;3.20;2.50;;;2.90;99.90;;;;;;5054786;28;20394;-68
2021/01/19 05:01:51;;;;;;;2.40;2.30;;;3.00;99.90;;;;;;5054696;28;20403;-68
2021/01/19 05:04:43;;;;;;;3.13;2.93;;;3.00;99.90;;;;;;5054627;28;20493;-68
2021/01/19 05:07:28;;;;;;;2.97;2.00;;;3.00;99.90;;;;;;5054128;28;20437;-68
2021/01/19 05:10:13;;;;;;;3.73;1.90;;;3.00;99.90;;;;;;5054523;28;20966;-68
2021/01/19 05:12:44;;;;;;;2.23;1.83;;;3.00;99.90;;;;;;5054196;28;20861;-68
2021/01/19 05:15:11;;;;;;;2.07;1.87;;;3.00;99.90;;;;;;5054372;28;20789;-68
2021/01/19 05:17:41;;;;;;;1.80;1.70;;;3.00;99.90;;;;;;5053323;28;20485;-67
2021/01/19 05:20:08;;;;;;;1.60;1.53;;;3.00;99.90;;;;;;5054345;28;20842;-68
2021/01/19 05:22:34;;;;;;;3.10;1.90;;;3.00;99.90;;;;;;5052882;28;20411;-68
2021/01/19 05:25:00;;;;;;;1.57;1.50;;;3.00;99.90;;;;;;5054253;28;20403;-67
2021/01/19 05:27:26;;;;;;;1.60;1.50;;;3.10;99.90;;;;;;5053732;28;20196;-68
2021/01/19 05:30:03;;;;;;;2.23;2.13;;;3.00;99.90;;;;;;5054028;28;20187;-67
2021/01/19 05:32:37;;;;;;;1.60;1.50;;;3.00;99.90;;;;;;5054028;28;20411;-68
2021/01/19 05:35:13;;;;;;;2.23;2.13;;;3.00;99.90;;;;;;5052856;28;20504;-68
2021/01/19 05:37:41;;;;;;;3.03;1.70;;;2.90;99.90;;;;;;5053478;28;20469;-68
2021/01/19 05:40:08;;;;;;;1.80;1.70;;;3.00;99.90;;;;;;5053902;28;20399;-68
2021/01/19 05:42:33;;;;;;;1.80;1.70;;;3.00;99.90;;;;;;5053950;28;20497;-68
2021/01/19 05:45:06;;;;;;;1.60;1.33;;;3.00;99.90;;;;;;5053770;28;20456;-68
2021/01/19 05:47:33;;;;;;;1.50;1.50;;;3.00;99.90;;;;;;5053602;28;20198;-67
2021/01/19 05:49:59;;;;;;;2.47;2.37;;;3.20;99.90;;;;;;5054051;28;20501;-68
2021/01/19 05:52:30;;;;;;;1.50;1.50;;;3.20;99.90;;;;;;5053776;28;20920;-68
2021/01/19 05:54:57;;;;;;;3.03;1.70;;;3.10;99.90;;;;;;5053575;28;20410;-68
2021/01/19 05:57:24;;;;;;;1.83;1.77;;;3.10;99.90;;;;;;5053122;28;20477;-68
2021/01/19 05:59:59;;;;;;;1.40;1.40;;;3.10;99.90;;;;;;5053451;28;20413;-68
2021/01/19 06:02:41;;;;;;;1.63;1.53;;;3.10;99.90;;;;;;5053675;28;20453;-68
2021/01/19 06:05:15;;;;;;;1.80;1.70;;;3.20;99.90;;;;;;5053390;28;20502;-68
2021/01/19 06:07:45;;;;;;;1.30;1.30;;;3.20;99.90;;;;;;5053216;28;20468;-67
2021/01/19 06:10:16;;;;;;;3.53;1.27;;;3.10;99.90;;;;;;5053476;28;20452;-68
2021/01/19 06:12:42;;;;;;;1.63;1.50;;;3.10;99.90;;;;;;5053600;28;20436;-68
2021/01/19 06:15:09;;;;;;;1.10;1.10;;;3.10;99.90;;;;;;5053332;28;20441;-68
2021/01/19 06:17:35;;;;;;;1.20;1.20;;;3.10;99.90;;;;;;5052989;28;20245;-67
2021/01/19 06:20:02;;;;;;;1.77;1.10;;;3.10;99.90;;;;;;5053188;28;20449;-67
2021/01/19 06:22:28;;;;;;;1.37;1.30;;;3.10;99.90;;;;;;5053368;28;20493;-68
2021/01/19 06:24:55;;;;;;;1.77;1.67;;;3.10;99.90;;;;;;5053265;28;20439;-68
2021/01/19 06:27:21;;;;;;;1.47;1.47;;;3.10;99.90;;;;;;5050708;28;20489;-68
2021/01/19 06:29:59;;;;;;;2.20;1.63;;;3.10;99.90;;;;;;5052283;28;20434;-68
2021/01/19 06:32:29;;;;;;;1.80;1.50;;;3.10;99.90;;;;;;5053362;28;20182;-68
2021/01/19 06:34:56;;;;;;;2.07;1.97;;;3.10;99.90;;;;;;5053632;28;20980;-68
2021/01/19 06:37:27;;;;;;;1.97;1.80;;;3.10;99.90;;;;;;5052880;28;20828;-68
2021/01/19 06:40:00;;;;;;;1.93;1.83;;;3.10;99.90;;;;;;5053119;28;20406;-68
2021/01/19 06:42:28;;;;;;;2.37;2.17;;;3.10;99.90;;;;;;5052781;28;20411;-68
2021/01/19 06:44:58;;;;;;;2.10;1.93;;;3.10;99.90;;;;;;5053317;28;20903;-68
2021/01/19 06:47:24;;;;;;;1.57;1.53;;;3.10;99.90;;;;;;5052528;28;20525;-68
2021/01/19 06:49:52;;;;;;;4.37;1.50;;;3.10;99.90;;;;;;5052869;28;20548;-68
2021/01/19 06:52:18;;;;;;;2.07;1.60;;;3.00;99.90;;;;;;5052725;28;20900;-66
2021/01/19 06:54:53;;;;;;;2.00;1.70;;;3.00;99.90;;;;;;5052968;28;20930;-68
2021/01/19 06:57:32;;;;;;;1.93;1.40;;;3.00;99.90;;;;;;5052254;28;20522;-68
2021/01/19 07:00:18;;;;;;;3.80;1.90;;;2.90;99.90;;;;;;5053157;28;20432;-68
2021/01/19 07:02:43;;;;;;;1.37;1.37;;;3.00;99.90;;;;;;5051369;28;20829;-68
2021/01/19 07:05:13;;;;;;;1.37;1.27;;;3.00;99.90;;;;;;5052426;28;20499;-68
2021/01/19 07:07:44;;;;;;;1.63;1.53;;;3.00;99.90;;;;;;5052071;28;20782;-68
2021/01/19 07:10:42;;;;;;;1.60;1.50;;;3.00;99.90;;;;;;5052147;28;20425;-67
2021/01/19 07:13:09;;;;;;;57.37;30.37;;;3.10;99.90;;;;;;5052162;28;20417;-68
2021/01/19 07:15:49;;;;;;;5.13;1.80;;;3.10;99.90;;;;;;5052180;28;20406;-68
2021/01/19 07:18:41;;;;;;;2.00;1.50;;;3.10;99.90;;;;;;5051620;28;20503;-68
2021/01/19 07:21:11;;;;;;;1.70;1.60;;;3.10;99.90;;;;;;5052116;28;20483;-67
2021/01/19 07:23:45;;;;;;;1.97;1.87;;;3.20;99.90;;;;;;5051887;28;20482;-66
2021/01/19 07:26:22;;;;;;;1.90;1.87;;;3.20;99.90;;;;;;5052725;28;20492;-66
2021/01/19 07:28:49;;;;;;;1.77;1.67;;;3.10;99.90;;;;;;5051719;28;20410;-65
2021/01/19 07:31:16;;;;;;;1.73;1.63;;;3.10;99.90;;;;;;5052424;28;20786;-65
2021/01/19 07:33:43;;;;;;;1.80;1.70;;;3.20;99.90;;;;;;5052277;28;20751;-64
2021/01/19 07:36:16;;;;;;;1.40;1.40;;;3.20;99.90;;;;;;5052018;28;20418;-66
2021/01/19 07:38:42;;;;;;;6.93;5.60;;;3.10;99.90;;;;;;5051579;28;20455;-67
2021/01/19 07:41:09;;;;;;;3.03;1.50;;;3.20;99.90;;;;;;5051565;28;20410;-66
2021/01/19 07:43:36;;;;;;;2.07;1.30;;;3.20;99.90;;;;;;5052242;28;20168;-64
2021/01/19 07:46:02;;;;;;;1.40;1.27;;;3.20;99.90;;;;;;5052163;28;20776;-65
2021/01/19 07:48:35;;;;;;;1.47;1.37;;;3.20;99.90;;;;;;5051764;28;20460;-65
2021/01/19 07:51:17;;;;;;;1.77;1.20;;;3.20;99.90;;;;;;5051616;28;20411;-65
2021/01/19 07:53:51;;;;;;;1.33;1.23;;;3.30;99.90;;;;;;5052205;28;20406;-63
2021/01/19 07:56:28;;;;;;;1.30;1.30;;;3.30;99.90;;;;;;5051630;28;20503;-66
2021/01/19 07:58:54;;;;;;;6.20;1.60;;;3.30;99.90;;;;;;5051534;28;20402;-66
2021/01/19 08:01:28;;;;;;;1.27;1.27;;;3.30;99.90;;;;;;5051559;28;20757;-64
2021/01/19 08:04:06;;;;;;;1.77;1.50;;;3.30;99.90;;;;;;5051602;28;20395;-64
2021/01/19 08:06:32;;;;;;;1.93;1.50;;;3.30;99.90;;;;;;5051121;28;20969;-64
2021/01/19 08:09:18;;;;;;;1.10;1.00;;;3.30;99.90;;;;;;5051496;28;20434;-63
2021/01/19 08:11:45;;;;;;;1.20;1.20;;;3.30;99.90;;;;;;5051417;28;20168;-65
2021/01/19 08:14:11;;;;;;;1.67;1.40;;;3.30;99.90;;;;;;5051511;28;20438;-65
2021/01/19 08:16:40;;;;;;;1.10;1.00;;;3.30;99.90;;;;;;5050980;28;20507;-64
2021/01/19 08:19:11;;;;;;;1.40;1.30;;;3.40;99.90;;;;;;5051411;28;20406;-64
2021/01/19 08:21:40;;;;;;;1.00;1.00;;;3.40;99.90;;;;;;5051362;28;20445;-64
2021/01/19 08:24:09;;;;;;;1.70;1.60;;;3.50;99.90;;;;;;5051450;28;20808;-65
2021/01/19 08:26:36;;;;;;;1.37;1.30;;;3.40;99.90;;;;;;5049889;28;20462;-65
2021/01/19 08:29:03;;;;;;;2.77;1.17;;;3.40;99.90;;;;;;5051145;28;20932;-65
2021/01/19 08:31:31;;;;;;;1.03;1.03;;;3.40;99.90;;;;;;5050191;28;21036;-65
2021/01/19 08:34:24;;;;;;;1.13;1.10;;;3.40;99.90;;;;;;5051488;28;20434;-65
2021/01/19 08:36:49;;;;;;;5.07;1.90;;;3.30;99.90;;;;;;5051707;28;20457;-64
2021/01/19 08:39:17;;;;;;;2.10;1.70;;;3.30;99.90;;;;;;5051484;28;20501;-66
2021/01/19 08:41:44;;;;;;;1.30;1.20;;;3.30;99.90;;;;;;5052561;28;20164;-66
2021/01/19 08:44:10;;;;;;;1.23;0.80;;;3.30;99.90;;;;;;5053147;28;20501;-67
2021/01/19 08:46:38;;;;;;;1.07;1.07;;;3.30;99.90;;;;;;5052157;28;20993;-65
2021/01/19 08:49:07;;;;;;;0.90;0.90;;;3.30;99.90;;;;;;5052382;28;20407;-68
2021/01/19 08:51:34;;;;;;;1.30;1.30;;;3.20;99.90;;;;;;5053223;28;20410;-65
2021/01/19 08:53:59;;;;;;;2.07;1.97;;;3.20;99.90;;;;;;5055407;28;20402;-67
2021/01/19 08:56:27;;;;;;;1.20;1.20;;;3.30;99.90;;;;;;5054731;28;20446;-65
2021/01/19 08:58:53;;;;;;;0.90;0.90;;;3.30;99.90;;;;;;5068837;28;20174;-68
2021/01/19 09:01:19;;;;;;;1.60;1.50;;;3.40;99.90;;;;;;5075292;28;20398;-67
2021/01/19 09:03:56;;;;;;;1.10;1.10;;;3.40;99.90;;;;;;5076309;28;20398;-68
2021/01/19 09:06:22;;;;;;;1.60;1.60;;;3.40;99.90;;;;;;5074032;28;20425;-66
2021/01/19 09:08:58;;;;;;;1.23;1.23;;;3.40;99.90;;;;;;5074535;28;20405;-65
2021/01/19 09:11:32;;;;;;;1.80;1.40;;;3.50;99.90;;;;;;5073785;28;20413;-65
2021/01/19 09:14:08;;;;;;;1.23;1.17;;;3.50;99.90;;;;;;5074105;28;20510;-65
2021/01/19 09:16:35;;;;;;;1.27;1.27;;;3.60;99.90;;;;;;5073404;28;20518;-65
2021/01/19 09:19:07;;;;;;;1.30;1.20;;;3.70;99.90;;;;;;5073993;28;20458;-65
2021/01/19 09:21:33;;;;;;;1.20;1.10;;;3.80;99.90;;;;;;5072261;28;20900;-65
2021/01/19 09:23:58;;;;;;;0.97;0.97;;;3.80;99.90;;;;;;5074367;28;20421;-65
2021/01/19 09:26:25;;;;;;;1.20;1.20;;;3.80;99.90;;;;;;5073358;28;20516;-64
2021/01/19 09:28:50;;;;;;;1.40;1.40;;;3.80;99.90;;;;;;5073915;28;20898;-65
2021/01/19 09:31:24;;;;;;;0.93;0.93;;;3.80;99.90;;;;;;5074261;28;20397;-65
2021/01/19 09:33:55;;;;;;;1.00;1.00;;;3.90;99.90;;;;;;5073819;28;20174;-64
2021/01/19 09:36:21;;;;;;;1.20;1.10;;;4.00;99.90;;;;;;5074033;28;20435;-65
2021/01/19 09:38:50;;;;;;;1.37;1.37;;;4.00;99.90;;;;;;5073516;28;20425;-64
2021/01/19 09:41:19;;;;;;;1.30;1.20;;;4.00;99.90;;;;;;5073973;28;20413;-65
2021/01/19 09:43:57;;;;;;;1.17;1.10;;;4.10;99.90;;;;;;5073694;28;20823;-64
2021/01/19 09:46:25;;;;;;;1.10;1.00;;;4.00;99.90;;;;;;5073223;28;20491;-66
2021/01/19 09:51:27;;;;;;;1.00;1.00;;;4.10;99.90;;;;;;5269468;22;20485;-64
2021/01/19 09:53:58;;;;;;;1.00;1.00;;;4.10;99.90;;;;;;5031640;28;20435;-65
2021/01/19 09:56:24;;;;;;;1.20;1.10;;;4.20;99.90;;;;;;5033444;28;20860;-64
2021/01/19 09:59:04;;;;;;;0.77;0.77;;;4.20;99.90;;;;;;5033671;28;20411;-64
2021/01/19 10:01:29;;;;;;;0.90;0.90;;;4.20;99.90;;;;;;5033227;28;20431;-63
2021/01/19 10:03:55;;;;;;;0.90;0.90;;;4.30;99.90;;;;;;5033425;28;20430;-65
2021/01/19 10:06:24;;;;;;;1.10;1.10;;;4.30;99.90;;;;;;5032408;28;20255;-66
2021/01/19 10:08:52;;;;;;;1.00;1.00;;;4.30;99.90;;;;;;5033695;28;20165;-65
2021/01/19 10:11:55;;;;;;;1.03;1.03;;;4.40;99.90;;;;;;5033108;28;20922;-64
2021/01/19 10:14:20;;;;;;;1.10;1.10;;;4.40;99.90;;;;;;5026844;28;20502;-65
2021/01/19 10:16:48;;;;;;;1.23;1.23;;;4.50;99.90;;;;;;5033436;28;20562;-64
2021/01/19 10:19:29;;;;;;;1.33;1.33;;;4.50;99.90;;;;;;5033207;28;20165;-64
2021/01/19 10:21:57;;;;;;;1.00;1.00;;;4.50;99.90;;;;;;5032626;28;20411;-64
2021/01/19 10:24:24;;;;;;;2.30;1.10;;;4.50;99.90;;;;;;5033175;28;20399;-64
2021/01/19 10:27:10;;;;;;;1.60;1.10;;;4.50;99.90;;;;;;5032809;28;20549;-64
2021/01/19 10:29:36;;;;;;;1.10;1.10;;;4.60;99.90;;;;;;5032661;28;20474;-63
2021/01/19 10:32:04;;;;;;;1.10;1.10;;;4.60;99.90;;;;;;5033100;28;20407;-64
2021/01/19 10:34:33;;;;;;;1.17;1.17;;;4.60;99.90;;;;;;5033011;28;20404;-65
2021/01/19 10:37:03;;;;;;;0.97;0.97;;;4.70;99.90;;;;;;5033361;28;20463;-66
2021/01/19 10:39:30;;;;;;;1.20;1.20;;;4.70;99.90;;;;;;5013124;28;20408;-65
2021/01/19 10:41:57;;;;;;;1.00;1.00;;;4.60;99.90;;;;;;5012890;28;20411;-63
2021/01/19 10:44:24;;;;;;;1.23;1.23;;;4.70;99.90;;;;;;5013213;28;20404;-63
2021/01/19 10:46:58;;;;;;;1.20;1.20;;;4.70;99.90;;;;;;5012496;28;20551;-63
2021/01/19 10:49:28;;;;;;;1.10;1.10;;;4.80;99.90;;;;;;5012843;28;20427;-63
2021/01/19 10:51:54;;;;;;;1.40;1.40;;;4.70;99.90;;;;;;5013006;28;20404;-64
2021/01/19 10:54:20;;;;;;;1.23;1.23;;;4.70;99.90;;;;;;5012942;28;20438;-63
2021/01/19 10:56:57;;;;;;;1.00;1.00;;;4.80;99.90;;;;;;5012898;28;20966;-61
2021/01/19 10:59:23;;;;;;;1.17;1.17;;;4.80;99.90;;;;;;5012766;28;20427;-63
2021/01/19 11:01:48;;;;;;;1.10;1.10;;;4.90;99.90;;;;;;5012413;28;20908;-64
2021/01/19 11:04:14;;;;;;;1.00;1.00;;;4.90;99.90;;;;;;5012814;28;20173;-63
2021/01/19 11:06:39;;;;;;;1.20;1.20;;;4.80;99.90;;;;;;5012360;28;20177;-64
2021/01/19 11:09:05;;;;;;;0.97;0.97;;;4.90;99.90;;;;;;5012574;28;20170;-64
2021/01/19 11:11:34;;;;;;;1.20;1.20;;;5.00;99.90;;;;;;5010959;28;20247;-64
2021/01/19 11:14:02;;;;;;;1.47;1.40;;;4.90;99.90;;;;;;5012578;28;20439;-63
2021/01/19 11:16:33;;;;;;;1.30;1.30;;;4.90;99.90;;;;;;5012232;28;20826;-64
2021/01/19 11:19:02;;;;;;;1.00;1.00;;;5.00;99.90;;;;;;5012839;28;20924;-63
2021/01/19 11:21:36;;;;;;;1.17;1.17;;;5.00;99.90;;;;;;5012058;28;20975;-63
2021/01/19 11:24:03;;;;;;;1.27;1.17;;;5.10;99.90;;;;;;5012499;28;20613;-63
2021/01/19 11:26:30;;;;;;;1.10;1.10;;;5.00;99.90;;;;;;5012350;28;20412;-66
2021/01/19 11:28:56;;;;;;;1.97;1.97;;;5.10;99.90;;;;;;5012354;28;20462;-65
2021/01/19 11:31:23;;;;;;;1.00;1.00;;;5.10;99.90;;;;;;5012043;28;20420;-66
2021/01/19 11:33:49;;;;;;;1.40;1.40;;;5.10;99.90;;;;;;5012329;28;20408;-65
2021/01/19 11:36:22;;;;;;;1.57;1.57;;;5.10;99.90;;;;;;5012365;28;20409;-64
2021/01/19 11:38:48;;;;;;;1.20;1.10;;;5.00;99.90;;;;;;5012212;28;20720;-65
2021/01/19 11:41:22;;;;;;;1.00;1.00;;;5.00;99.90;;;;;;5011909;28;20512;-64
2021/01/19 11:43:49;;;;;;;1.53;1.10;;;5.10;99.90;;;;;;5012262;28;20165;-64
2021/01/19 11:46:26;;;;;;;1.20;1.20;;;5.10;99.90;;;;;;5012267;28;20804;-64
2021/01/19 11:48:53;;;;;;;1.30;1.30;;;5.10;99.90;;;;;;5012159;28;20430;-63
2021/01/19 11:51:20;;;;;;;1.20;1.20;;;5.10;99.90;;;;;;5011718;28;20519;-63
2021/01/19 11:53:50;;;;;;;1.10;1.10;;;5.10;99.90;;;;;;5026524;28;20609;-62
2021/01/19 11:56:17;;;;;;;1.03;1.03;;;5.10;99.90;;;;;;5031830;28;20387;-64
2021/01/19 11:58:43;;;;;;;1.10;1.10;;;5.20;99.90;;;;;;5031749;28;20774;-64
2021/01/19 12:01:16;;;;;;;1.13;1.13;;;5.30;99.90;;;;;;5031319;28;20431;-64
2021/01/19 12:03:42;;;;;;;1.47;1.37;;;5.30;99.90;;;;;;5031782;28;20427;-64
2021/01/19 12:06:07;;;;;;;1.10;1.10;;;5.20;99.90;;;;;;5031750;28;20782;-64
2021/01/19 12:08:33;;;;;;;0.97;0.97;;;5.20;99.90;;;;;;5031680;28;20183;-64
2021/01/19 12:10:58;;;;;;;0.93;0.93;;;5.20;99.90;;;;;;5031367;28;20549;-65
2021/01/19 12:13:25;;;;;;;1.00;1.00;;;5.30;99.90;;;;;;5031110;28;20177;-64
2021/01/19 12:15:50;;;;;;;1.00;1.00;;;5.20;99.90;;;;;;5031640;28;20515;-64
2021/01/19 12:18:16;;;;;;;1.43;1.33;;;5.30;99.90;;;;;;5030248;28;20458;-64
2021/01/19 12:20:41;;;;;;;0.90;0.90;;;5.30;99.90;;;;;;5031102;28;20188;-64
2021/01/19 12:23:07;;;;;;;1.30;1.20;;;5.30;99.90;;;;;;5031654;28;20168;-63
2021/01/19 12:25:33;;;;;;;0.80;0.80;;;5.30;99.90;;;;;;5031639;28;20246;-63
2021/01/19 12:28:01;;;;;;;1.33;1.23;;;5.30;99.90;;;;;;5032165;28;20173;-64
2021/01/19 12:30:26;;;;;;;1.23;1.23;;;5.40;99.90;;;;;;5034548;28;20197;-64
2021/01/19 12:32:52;;;;;;;1.47;1.37;;;5.40;99.90;;;;;;5034727;28;20494;-64
2021/01/19 12:35:18;;;;;;;1.03;1.03;;;5.40;99.90;;;;;;5035247;28;20212;-65
2021/01/19 12:37:43;;;;;;;1.43;1.33;;;5.40;99.90;;;;;;5034874;28;20242;-64
2021/01/19 12:40:10;;;;;;;1.30;1.30;;;5.40;99.90;;;;;;5034934;28;20189;-64
2021/01/19 12:42:35;;;;;;;1.30;1.30;;;5.40;99.90;;;;;;5034491;28;20199;-63
2021/01/19 12:45:01;;;;;;;1.40;1.30;;;5.40;99.90;;;;;;5034391;28;20785;-64
2021/01/19 12:47:26;;;;;;;1.40;1.40;;;5.30;99.90;;;;;;5035115;28;20177;-64
2021/01/19 12:49:52;;;;;;;1.50;1.50;;;5.30;99.90;;;;;;5034597;28;20203;-64
2021/01/19 12:52:17;;;;;;;1.10;1.10;;;5.30;99.90;;;;;;5034977;28;20644;-64
2021/01/19 12:54:43;;;;;;;1.53;1.30;;;5.30;99.90;;;;;;5035078;28;20592;-64
2021/01/19 12:57:15;;;;;;;1.50;1.43;;;5.30;99.90;;;;;;5034922;28;20303;-64
2021/01/19 12:59:41;;;;;;;1.50;1.50;;;5.30;99.90;;;;;;5034507;28;20659;-64
2021/01/19 13:02:07;;;;;;;1.27;1.23;;;5.30;99.90;;;;;;5034931;28;20892;-64
2021/01/19 13:04:33;;;;;;;0.90;0.90;;;5.30;99.90;;;;;;5034851;28;20403;-64
2021/01/19 13:06:59;;;;;;;1.80;1.70;;;5.30;99.90;;;;;;5034755;28;20776;-64
2021/01/19 13:09:25;;;;;;;1.20;1.20;;;5.30;99.90;;;;;;5034564;28;20191;-65